Time;durP1;ratioP1;P1;durP2;ratioP2;P2;SDS_P1;SDS_P2;PMS_P1;PMS_P2;Temp;Humidity;BMP_temperature;BMP_pressure;BME280_temperature;BME280_humidity;BME280_pressure;Samples;Min_cycle;Max_cycle;Signal;HPM_P1;HPM_P2
2024/01/25 00:01:35;;;;;;;67.75;11.10;;;10.70;99.90;;;;;;5026451;28;20033;-78
2024/01/25 00:04:00;;;;;;;62.72;10.70;;;10.60;99.90;;;;;;5030185;28;20017;-77
2024/01/25 00:06:26;;;;;;;56.10;10.52;;;10.60;99.90;;;;;;5027337;28;20021;-77
2024/01/25 00:08:52;;;;;;;65.90;10.90;;;10.70;99.90;;;;;;5028581;28;20482;-78
2024/01/25 00:11:18;;;;;;;60.10;10.98;;;10.80;99.90;;;;;;5030918;28;20017;-78
2024/01/25 00:13:43;;;;;;;65.95;10.65;;;10.70;99.90;;;;;;5030791;28;20029;-77
2024/01/25 00:16:09;;;;;;;72.22;11.30;;;10.70;99.90;;;;;;5026608;28;20038;-78
2024/01/25 00:18:35;;;;;;;61.33;10.85;;;10.60;99.90;;;;;;5030696;28;20390;-78
2024/01/25 00:21:01;;;;;;;56.13;10.00;;;10.60;99.90;;;;;;5028683;28;20090;-78
2024/01/25 00:23:27;;;;;;;59.30;10.73;;;10.70;99.90;;;;;;5031330;28;20094;-77
2024/01/25 00:25:53;;;;;;;54.97;10.00;;;10.70;99.90;;;;;;5028473;28;20025;-77
2024/01/25 00:28:19;;;;;;;68.63;10.48;;;10.80;99.90;;;;;;5029697;28;20037;-78
2024/01/25 00:30:44;;;;;;;58.03;10.52;;;10.70;99.90;;;;;;5028662;28;20053;-76
2024/01/25 00:33:10;;;;;;;57.95;12.40;;;10.60;99.90;;;;;;5028865;28;20387;-77
2024/01/25 00:35:36;;;;;;;53.35;11.02;;;10.50;99.90;;;;;;5031515;28;20041;-75
2024/01/25 00:38:02;;;;;;;56.38;10.55;;;10.60;99.90;;;;;;5028700;28;20029;-78
2024/01/25 00:40:28;;;;;;;70.43;11.85;;;10.60;99.90;;;;;;5027943;28;20029;-78
2024/01/25 00:42:55;;;;;;;62.45;11.00;;;10.60;99.90;;;;;;5027638;28;20075;-77
2024/01/25 00:45:22;;;;;;;58.08;10.68;;;10.60;99.90;;;;;;5030277;28;20092;-77
2024/01/25 00:47:48;;;;;;;67.28;11.13;;;10.60;99.90;;;;;;5027354;28;20029;-78
2024/01/25 00:50:17;;;;;;;74.78;11.85;;;10.60;99.90;;;;;;5023100;28;20033;-78
2024/01/25 00:52:43;;;;;;;57.42;10.52;;;10.50;99.90;;;;;;5028338;28;20037;-77
2024/01/25 00:55:10;;;;;;;61.20;12.43;;;10.40;99.90;;;;;;5027090;28;20094;-77
2024/01/25 00:57:36;;;;;;;68.35;11.40;;;10.30;99.90;;;;;;5026814;28;20114;-76
2024/01/25 01:00:02;;;;;;;57.75;10.98;;;10.30;99.90;;;;;;5027365;28;20029;-77
2024/01/25 01:02:35;;;;;;;67.63;12.75;;;10.30;99.90;;;;;;5028519;28;20025;-75
2024/01/25 01:05:00;;;;;;;67.47;11.50;;;10.20;99.90;;;;;;5027455;28;20010;-77
2024/01/25 01:07:26;;;;;;;72.28;11.52;;;10.10;99.90;;;;;;5032159;28;20041;-77
2024/01/25 01:09:52;;;;;;;71.57;11.45;;;10.20;99.90;;;;;;5026966;28;20013;-78
2024/01/25 01:12:18;;;;;;;63.95;10.65;;;10.10;99.90;;;;;;5029951;28;20025;-78
2024/01/25 01:14:44;;;;;;;61.78;10.35;;;10.10;99.90;;;;;;5028237;28;20029;-78
2024/01/25 01:17:09;;;;;;;53.58;10.77;;;10.10;99.90;;;;;;5026469;28;20021;-78
2024/01/25 01:19:35;;;;;;;65.85;11.30;;;10.10;99.90;;;;;;5028957;28;20026;-78
2024/01/25 01:22:01;;;;;;;64.13;11.07;;;10.10;99.90;;;;;;5030105;28;20033;-78
2024/01/25 01:24:27;;;;;;;67.93;10.90;;;10.20;99.90;;;;;;5028734;28;20043;-78
2024/01/25 01:26:52;;;;;;;51.70;9.70;;;10.20;99.90;;;;;;5027696;28;20098;-78
2024/01/25 01:29:18;;;;;;;53.63;9.88;;;10.10;99.90;;;;;;5028770;28;20030;-78
2024/01/25 01:31:44;;;;;;;62.10;10.55;;;10.10;99.90;;;;;;5029339;28;20038;-78
2024/01/25 01:34:12;;;;;;;56.40;10.68;;;10.10;99.90;;;;;;5022516;28;20037;-78
2024/01/25 01:36:38;;;;;;;61.05;12.10;;;10.00;99.90;;;;;;5030564;28;20497;-78
2024/01/25 01:39:04;;;;;;;66.97;11.55;;;9.90;99.90;;;;;;5026976;28;20034;-78
2024/01/25 01:41:29;;;;;;;67.10;11.32;;;9.90;99.90;;;;;;5031783;28;20034;-78
2024/01/25 01:43:55;;;;;;;64.75;11.52;;;10.00;99.90;;;;;;5028772;28;20030;-78
2024/01/25 01:46:37;;;;;;;67.07;10.68;;;10.00;99.90;;;;;;5029220;28;20057;-78
2024/01/25 01:49:14;;;;;;;63.75;10.70;;;10.00;99.90;;;;;;5027846;28;20565;-77
2024/01/25 01:51:42;;;;;;;56.78;9.95;;;9.80;99.90;;;;;;5030513;28;20017;-78
2024/01/25 01:54:08;;;;;;;61.70;12.15;;;9.90;99.90;;;;;;5030221;28;20371;-77
2024/01/25 01:56:35;;;;;;;61.88;11.10;;;9.80;99.90;;;;;;5029013;28;20043;-76
2024/01/25 01:59:02;;;;;;;54.03;11.50;;;9.70;99.90;;;;;;5029814;28;20072;-77
2024/01/25 02:01:29;;;;;;;73.43;11.43;;;9.70;99.90;;;;;;5030728;28;20033;-77
2024/01/25 02:03:55;;;;;;;82.90;11.23;;;9.60;99.90;;;;;;5031034;28;20032;-75
2024/01/25 02:06:23;;;;;;;64.57;11.25;;;9.50;99.90;;;;;;5033494;28;20018;-78
2024/01/25 02:08:50;;;;;;;73.68;12.00;;;9.60;99.90;;;;;;5031269;28;20041;-78
2024/01/25 02:11:17;;;;;;;52.63;10.38;;;9.60;99.90;;;;;;5032655;28;20108;-78
2024/01/25 02:13:44;;;;;;;66.72;10.05;;;9.60;99.90;;;;;;5030777;28;20036;-77
2024/01/25 02:16:09;;;;;;;64.57;11.50;;;9.60;99.90;;;;;;5030742;28;20593;-78
2024/01/25 02:18:35;;;;;;;60.17;9.88;;;9.60;99.90;;;;;;5034731;28;20096;-78
2024/01/25 02:21:01;;;;;;;60.65;9.13;;;9.60;99.90;;;;;;5030498;28;20114;-78
2024/01/25 02:23:27;;;;;;;59.03;10.77;;;9.60;99.90;;;;;;5029731;28;20025;-78
2024/01/25 02:25:53;;;;;;;61.78;9.25;;;9.60;99.90;;;;;;5032189;28;20029;-77
2024/01/25 02:28:19;;;;;;;57.00;8.82;;;9.60;99.90;;;;;;5033141;28;20053;-78
2024/01/25 02:30:44;;;;;;;57.28;9.23;;;9.60;99.90;;;;;;5030098;28;20449;-79
2024/01/25 02:33:10;;;;;;;61.63;10.45;;;9.50;99.90;;;;;;5030322;28;20674;-76
2024/01/25 02:35:38;;;;;;;62.47;10.15;;;9.60;99.90;;;;;;5028519;28;20059;-79
2024/01/25 02:38:04;;;;;;;66.28;10.27;;;9.60;99.90;;;;;;5033012;28;20053;-79
2024/01/25 02:40:30;;;;;;;61.22;9.48;;;9.60;99.90;;;;;;5029334;28;20533;-78
2024/01/25 02:42:59;;;;;;;55.70;10.02;;;9.50;99.90;;;;;;5032564;28;20057;-78
2024/01/25 02:45:24;;;;;;;63.03;9.90;;;9.50;99.90;;;;;;5034817;28;20021;-78
2024/01/25 02:47:50;;;;;;;53.20;9.45;;;9.60;99.90;;;;;;5030937;28;20421;-77
2024/01/25 02:50:16;;;;;;;59.70;9.88;;;9.60;99.90;;;;;;5030702;28;20099;-78
2024/01/25 02:52:42;;;;;;;56.63;9.52;;;9.60;99.90;;;;;;5032695;28;20087;-78
2024/01/25 02:55:08;;;;;;;50.85;9.68;;;9.50;99.90;;;;;;5033927;28;20514;-77
2024/01/25 02:57:34;;;;;;;62.35;9.02;;;9.40;99.90;;;;;;5030952;28;20482;-77
2024/01/25 03:00:00;;;;;;;65.90;9.57;;;9.40;99.90;;;;;;5030641;28;20092;-78
2024/01/25 03:02:26;;;;;;;55.67;8.27;;;9.30;99.90;;;;;;5032139;28;20033;-78
2024/01/25 03:04:51;;;;;;;61.55;10.05;;;9.30;99.90;;;;;;5028309;28;20025;-78
2024/01/25 03:07:17;;;;;;;51.72;9.43;;;9.40;99.90;;;;;;5031697;28;22720;-77
2024/01/25 03:09:43;;;;;;;49.17;8.30;;;9.40;99.90;;;;;;5028415;28;20021;-78
2024/01/25 03:12:09;;;;;;;55.92;9.13;;;9.30;99.90;;;;;;5029854;28;20473;-77
2024/01/25 03:14:35;;;;;;;52.88;9.10;;;9.30;99.90;;;;;;5030277;28;20029;-78
2024/01/25 03:17:01;;;;;;;61.10;9.45;;;9.20;99.90;;;;;;5028341;28;20441;-78
2024/01/25 03:19:27;;;;;;;57.22;9.13;;;9.20;99.90;;;;;;5029315;28;20029;-74
2024/01/25 03:21:54;;;;;;;62.40;9.38;;;9.20;99.90;;;;;;5032588;28;20037;-77
2024/01/25 03:24:20;;;;;;;48.60;8.07;;;9.20;99.90;;;;;;5029456;28;20101;-77
2024/01/25 03:26:46;;;;;;;56.05;8.45;;;9.10;99.90;;;;;;5028583;28;20042;-78
2024/01/25 03:29:12;;;;;;;48.10;8.40;;;9.10;99.90;;;;;;5029681;28;20064;-78
2024/01/25 03:31:38;;;;;;;45.80;8.95;;;9.10;99.90;;;;;;5034391;28;20079;-78
2024/01/25 03:34:04;;;;;;;59.67;9.40;;;9.00;99.90;;;;;;5030510;28;20367;-77
2024/01/25 03:36:31;;;;;;;57.33;9.23;;;9.00;99.90;;;;;;5031926;28;20033;-77
2024/01/25 03:38:57;;;;;;;50.08;8.07;;;9.00;99.90;;;;;;5032841;28;20470;-77
2024/01/25 03:41:23;;;;;;;51.35;9.30;;;9.00;99.90;;;;;;5028906;28;20030;-78
2024/01/25 03:43:49;;;;;;;61.08;12.23;;;9.00;99.90;;;;;;5025556;28;20116;-76
2024/01/25 03:46:15;;;;;;;63.05;13.02;;;9.00;99.90;;;;;;5029135;28;20041;-77
2024/01/25 03:48:41;;;;;;;52.03;10.65;;;8.90;99.90;;;;;;5028152;28;20038;-77
2024/01/25 03:51:07;;;;;;;57.17;8.43;;;8.90;99.90;;;;;;5029844;28;20017;-77
2024/01/25 03:53:33;;;;;;;61.17;9.40;;;8.90;99.90;;;;;;5032809;28;20036;-78
2024/01/25 03:55:58;;;;;;;62.88;9.68;;;8.90;99.90;;;;;;5033078;28;20026;-77
2024/01/25 03:58:24;;;;;;;53.05;9.20;;;8.80;99.90;;;;;;5028960;28;20429;-77
2024/01/25 04:00:50;;;;;;;49.47;9.68;;;8.80;99.90;;;;;;5028948;28;20144;-76
2024/01/25 04:03:15;;;;;;;56.38;8.75;;;8.80;99.90;;;;;;5029203;28;20079;-76
2024/01/25 04:05:41;;;;;;;60.75;8.52;;;8.70;99.90;;;;;;5029206;28;20136;-77
2024/01/25 04:08:07;;;;;;;62.08;8.93;;;8.70;99.90;;;;;;5030204;28;20065;-77
2024/01/25 04:10:34;;;;;;;61.78;9.10;;;8.70;99.90;;;;;;5032878;28;20037;-78
2024/01/25 04:13:00;;;;;;;58.90;9.63;;;8.70;99.90;;;;;;5029118;28;20524;-77
2024/01/25 04:15:26;;;;;;;55.05;9.63;;;8.70;99.90;;;;;;5027572;28;20045;-76
2024/01/25 04:17:53;;;;;;;46.80;7.80;;;8.70;99.90;;;;;;5031954;28;22270;-77
2024/01/25 04:20:19;;;;;;;50.08;7.82;;;8.60;99.90;;;;;;5029710;28;20041;-77
2024/01/25 04:22:44;;;;;;;51.88;8.50;;;8.40;99.90;;;;;;5031255;28;20425;-77
2024/01/25 04:25:11;;;;;;;44.15;7.57;;;8.40;99.90;;;;;;5028320;28;20057;-77
2024/01/25 04:27:39;;;;;;;41.88;7.40;;;8.40;99.90;;;;;;5028622;28;20115;-75
2024/01/25 04:30:06;;;;;;;50.88;9.73;;;8.50;99.90;;;;;;5025644;28;20386;-77
2024/01/25 04:32:32;;;;;;;52.22;9.38;;;8.50;99.90;;;;;;5029124;28;20419;-78
2024/01/25 04:34:58;;;;;;;55.70;8.73;;;8.50;99.90;;;;;;5026744;28;20475;-77
2024/01/25 04:37:24;;;;;;;47.00;8.50;;;8.50;99.90;;;;;;5030668;28;20028;-77
2024/01/25 04:39:50;;;;;;;51.72;9.32;;;8.40;99.90;;;;;;5032212;28;20029;-77
2024/01/25 04:42:16;;;;;;;57.55;9.15;;;8.40;99.90;;;;;;5029200;28;20083;-77
2024/01/25 04:44:41;;;;;;;50.95;9.43;;;8.40;99.90;;;;;;5029715;28;20017;-77
2024/01/25 04:47:08;;;;;;;60.40;8.65;;;8.40;99.90;;;;;;5034577;28;20035;-77
2024/01/25 04:49:34;;;;;;;58.67;9.32;;;8.40;99.90;;;;;;5029393;28;20121;-76
2024/01/25 04:52:00;;;;;;;54.88;8.65;;;8.40;99.90;;;;;;5032844;28;20100;-76
2024/01/25 04:54:26;;;;;;;41.53;8.02;;;8.40;99.90;;;;;;5022396;28;20440;-77
2024/01/25 04:56:51;;;;;;;36.45;7.05;;;8.40;99.90;;;;;;5025819;28;20117;-78
2024/01/25 04:59:17;;;;;;;41.00;8.07;;;8.30;99.90;;;;;;5029740;28;20486;-77
2024/01/25 05:01:43;;;;;;;43.15;8.88;;;8.20;99.90;;;;;;5031453;28;20081;-77
2024/01/25 05:04:08;;;;;;;45.78;7.63;;;8.20;99.90;;;;;;5031718;28;20104;-77
2024/01/25 05:06:34;;;;;;;58.35;8.75;;;8.20;99.90;;;;;;5032219;28;20034;-78
2024/01/25 05:09:00;;;;;;;40.95;8.60;;;8.20;99.90;;;;;;5032042;28;20025;-77
2024/01/25 05:11:25;;;;;;;55.30;9.25;;;8.20;99.90;;;;;;5032558;28;20382;-76
2024/01/25 05:13:51;;;;;;;47.63;8.77;;;8.20;99.90;;;;;;5032026;28;20086;-78
2024/01/25 05:16:17;;;;;;;56.20;9.48;;;8.10;99.90;;;;;;5032154;28;20445;-78
2024/01/25 05:18:42;;;;;;;45.38;7.45;;;8.10;99.90;;;;;;5032017;28;20466;-77
2024/01/25 05:21:08;;;;;;;57.65;9.95;;;8.10;99.90;;;;;;5031916;28;20033;-77
2024/01/25 05:23:34;;;;;;;54.70;8.90;;;8.10;99.90;;;;;;5024943;28;20025;-77
2024/01/25 05:26:01;;;;;;;43.10;8.45;;;8.10;99.90;;;;;;5015033;28;20058;-77
2024/01/25 05:28:27;;;;;;;59.55;10.10;;;8.00;99.90;;;;;;5018377;28;20036;-77
2024/01/25 05:30:53;;;;;;;50.50;8.88;;;8.00;99.90;;;;;;5032315;28;20037;-77
2024/01/25 05:33:18;;;;;;;48.85;8.63;;;8.00;99.90;;;;;;5034175;28;20467;-77
2024/01/25 05:35:44;;;;;;;45.92;9.02;;;7.90;99.90;;;;;;5035409;28;20470;-77
2024/01/25 05:38:10;;;;;;;58.72;10.43;;;7.90;99.90;;;;;;5034804;28;20363;-78
2024/01/25 05:40:35;;;;;;;50.92;7.47;;;7.80;99.90;;;;;;5035746;28;20026;-77
2024/01/25 05:43:01;;;;;;;43.70;7.72;;;7.80;99.90;;;;;;5035465;28;20039;-77
2024/01/25 05:45:27;;;;;;;47.10;9.18;;;7.80;99.90;;;;;;5035623;28;20059;-77
2024/01/25 05:47:52;;;;;;;59.28;10.48;;;7.70;99.90;;;;;;5035973;28;20021;-77
2024/01/25 05:50:18;;;;;;;58.50;10.27;;;7.70;99.90;;;;;;5036077;28;20057;-77
2024/01/25 05:52:44;;;;;;;46.00;8.18;;;7.70;99.90;;;;;;5036240;28;20437;-77
2024/01/25 05:55:10;;;;;;;43.05;8.68;;;7.60;99.90;;;;;;5035417;28;20514;-76
2024/01/25 05:57:36;;;;;;;43.22;8.45;;;7.60;99.90;;;;;;5035838;28;20023;-77
2024/01/25 06:00:05;;;;;;;48.30;9.35;;;7.60;99.90;;;;;;5035169;28;20037;-77
2024/01/25 06:02:31;;;;;;;41.72;8.07;;;7.60;99.90;;;;;;5035786;28;20029;-76
2024/01/25 06:04:59;;;;;;;32.08;7.63;;;7.50;99.90;;;;;;5035005;28;20021;-77
2024/01/25 06:07:26;;;;;;;46.60;7.65;;;7.40;99.90;;;;;;5034385;28;20037;-76
2024/01/25 06:09:52;;;;;;;39.05;7.22;;;7.30;99.90;;;;;;5035092;28;20447;-76
2024/01/25 06:12:18;;;;;;;40.00;7.68;;;7.20;99.90;;;;;;5035476;28;20166;-77
2024/01/25 06:14:44;;;;;;;64.95;9.40;;;7.30;99.90;;;;;;5035344;28;20114;-77
2024/01/25 06:17:10;;;;;;;51.22;8.68;;;7.30;99.90;;;;;;5035715;28;20433;-77
2024/01/25 06:19:36;;;;;;;49.40;9.07;;;7.30;99.90;;;;;;5034768;28;20029;-77
2024/01/25 06:22:02;;;;;;;38.92;8.23;;;7.40;99.90;;;;;;5035460;28;20037;-77
2024/01/25 06:24:28;;;;;;;54.92;9.35;;;7.40;99.90;;;;;;5035290;28;20017;-76
2024/01/25 06:26:54;;;;;;;52.53;9.90;;;7.30;99.90;;;;;;5034042;28;20033;-77
2024/01/25 06:29:20;;;;;;;46.20;8.52;;;7.30;99.90;;;;;;5035090;28;20044;-75
2024/01/25 06:31:46;;;;;;;62.05;12.85;;;7.30;99.90;;;;;;5035185;28;20036;-77
2024/01/25 06:34:12;;;;;;;54.45;9.90;;;7.30;99.90;;;;;;5034697;28;20018;-77
2024/01/25 06:36:37;;;;;;;60.67;13.02;;;7.30;99.90;;;;;;5032455;28;20399;-77
2024/01/25 06:39:06;;;;;;;57.35;10.93;;;7.30;99.90;;;;;;5024263;28;20403;-77
2024/01/25 06:41:32;;;;;;;53.75;11.15;;;7.30;99.90;;;;;;5033149;28;20040;-77
2024/01/25 06:43:59;;;;;;;51.72;11.27;;;7.30;99.90;;;;;;5033502;28;20021;-78
2024/01/25 06:46:25;;;;;;;48.72;10.80;;;7.30;99.90;;;;;;5034826;28;20022;-76
2024/01/25 06:48:51;;;;;;;47.17;9.90;;;7.40;99.90;;;;;;5034302;28;20025;-74
2024/01/25 06:51:17;;;;;;;55.17;10.68;;;7.30;99.90;;;;;;5034699;28;20087;-76
2024/01/25 06:53:43;;;;;;;44.25;10.48;;;7.30;99.90;;;;;;5033493;28;20071;-77
2024/01/25 06:56:09;;;;;;;54.53;11.38;;;7.20;99.90;;;;;;5034427;28;20029;-77
2024/01/25 06:58:34;;;;;;;70.90;12.35;;;7.20;99.90;;;;;;5034408;28;20033;-77
2024/01/25 07:01:01;;;;;;;88.00;13.63;;;7.10;99.90;;;;;;5032456;28;20077;-78
2024/01/25 07:03:26;;;;;;;79.50;14.07;;;7.10;99.90;;;;;;5022803;28;20124;-77
2024/01/25 07:05:52;;;;;;;74.03;12.55;;;7.00;99.90;;;;;;5033365;28;20494;-77
2024/01/25 07:08:18;;;;;;;74.90;12.63;;;7.00;99.90;;;;;;5021329;28;20018;-77
2024/01/25 07:10:47;;;;;;;82.90;13.18;;;7.10;99.90;;;;;;5014503;28;20430;-77
2024/01/25 07:13:13;;;;;;;89.50;11.45;;;7.10;99.90;;;;;;5015737;28;20037;-76
2024/01/25 07:15:39;;;;;;;73.82;11.80;;;7.10;99.90;;;;;;5034216;28;20023;-75
2024/01/25 07:18:05;;;;;;;187.85;16.15;;;6.90;99.90;;;;;;5033473;28;20034;-74
2024/01/25 07:20:30;;;;;;;77.88;12.45;;;6.80;99.90;;;;;;5034193;28;20036;-74
2024/01/25 07:22:56;;;;;;;52.53;11.65;;;6.90;99.90;;;;;;5032559;28;20071;-76
2024/01/25 07:25:22;;;;;;;60.03;10.98;;;7.00;99.90;;;;;;5023488;28;20026;-74
2024/01/25 07:27:49;;;;;;;52.95;11.38;;;7.10;99.90;;;;;;5014197;28;20041;-75
2024/01/25 07:30:15;;;;;;;44.42;12.00;;;7.10;99.90;;;;;;5022942;28;20482;-75
2024/01/25 07:32:42;;;;;;;47.35;10.48;;;7.20;99.90;;;;;;5033518;28;20026;-76
2024/01/25 07:35:10;;;;;;;74.80;13.90;;;7.20;99.90;;;;;;5033770;28;20021;-74
2024/01/25 07:37:36;;;;;;;73.10;13.13;;;7.30;99.90;;;;;;5032620;28;20108;-75
2024/01/25 07:40:06;;;;;;;37.53;11.35;;;7.30;99.90;;;;;;5032687;28;20025;-74
2024/01/25 07:42:32;;;;;;;47.47;11.50;;;7.30;99.90;;;;;;5033383;28;20091;-76
2024/01/25 07:44:58;;;;;;;39.42;12.02;;;7.40;99.90;;;;;;5033686;28;20454;-76
2024/01/25 07:47:24;;;;;;;57.83;13.65;;;7.40;99.90;;;;;;5032898;28;20448;-75
2024/01/25 07:49:49;;;;;;;62.00;12.23;;;7.40;99.90;;;;;;5019779;28;20100;-75
2024/01/25 07:52:15;;;;;;;49.63;13.50;;;7.50;99.90;;;;;;5026992;28;20402;-75
2024/01/25 07:54:41;;;;;;;68.28;14.55;;;7.50;99.90;;;;;;5025383;28;20684;-75
2024/01/25 07:57:06;;;;;;;97.20;17.85;;;7.60;99.90;;;;;;5023723;28;20467;-74
2024/01/25 07:59:32;;;;;;;88.28;18.77;;;7.50;99.90;;;;;;5022690;28;20030;-75
2024/01/25 08:01:58;;;;;;;56.17;14.88;;;7.40;99.90;;;;;;5029032;28;20060;-75
2024/01/25 08:04:23;;;;;;;60.13;16.13;;;7.50;99.90;;;;;;5030912;28;20021;-75
2024/01/25 08:06:49;;;;;;;38.55;15.15;;;7.50;99.90;;;;;;5024620;28;20097;-75
2024/01/25 08:09:15;;;;;;;58.90;17.55;;;7.50;99.90;;;;;;5021480;28;20234;-74
2024/01/25 08:11:41;;;;;;;61.50;19.98;;;7.50;99.90;;;;;;5030199;28;20053;-74
2024/01/25 08:14:07;;;;;;;77.25;20.27;;;7.60;99.90;;;;;;5028920;28;20033;-73
2024/01/25 08:16:34;;;;;;;60.17;19.33;;;7.60;99.90;;;;;;5023733;28;20026;-75
2024/01/25 08:19:00;;;;;;;80.65;22.08;;;7.70;99.90;;;;;;5021215;28;20375;-73
2024/01/25 08:21:26;;;;;;;81.38;23.60;;;7.80;99.90;;;;;;5021045;28;20084;-73
2024/01/25 08:23:59;;;;;;;77.05;23.15;;;7.80;99.90;;;;;;5031206;28;20029;-78
2024/01/25 08:26:25;;;;;;;95.88;26.15;;;7.80;99.90;;;;;;5025502;28;20034;-75
2024/01/25 08:28:51;;;;;;;106.82;26.75;;;7.80;99.90;;;;;;5012600;28;20033;-75
2024/01/25 08:31:17;;;;;;;96.22;29.23;;;7.80;99.90;;;;;;5011875;28;20029;-76
2024/01/25 08:33:47;;;;;;;117.05;30.85;;;7.70;99.90;;;;;;5021850;28;20053;-74
2024/01/25 08:36:22;;;;;;;92.50;27.85;;;7.60;99.90;;;;;;5019708;28;20454;-74
2024/01/25 08:38:48;;;;;;;164.48;31.05;;;7.60;99.90;;;;;;5022033;28;20108;-76
2024/01/25 08:41:15;;;;;;;97.43;27.63;;;7.60;99.90;;;;;;5019561;28;20037;-75
2024/01/25 08:43:41;;;;;;;97.35;29.10;;;7.80;99.90;;;;;;5021678;28;20022;-75
2024/01/25 08:46:08;;;;;;;95.25;29.30;;;7.80;99.90;;;;;;5020269;28;20028;-76
2024/01/25 08:48:34;;;;;;;100.97;28.52;;;7.80;99.90;;;;;;5012436;28;20418;-80
2024/01/25 08:51:00;;;;;;;93.47;28.05;;;7.80;99.90;;;;;;5015989;28;20034;-77
2024/01/25 08:53:27;;;;;;;83.28;27.33;;;7.80;99.90;;;;;;5012672;28;20026;-75
2024/01/25 08:55:56;;;;;;;92.90;26.85;;;7.90;99.90;;;;;;5018611;28;20463;-77
2024/01/25 08:58:22;;;;;;;93.28;26.40;;;7.90;99.90;;;;;;5020868;28;20030;-77
2024/01/25 09:00:48;;;;;;;66.28;22.10;;;7.90;99.90;;;;;;5011215;28;20623;-75
2024/01/25 09:03:17;;;;;;;74.10;23.63;;;8.00;99.90;;;;;;5012359;28;20025;-76
2024/01/25 09:05:45;;;;;;;82.70;23.70;;;8.10;99.90;;;;;;5021091;28;20718;-74
2024/01/25 09:08:12;;;;;;;84.20;23.92;;;8.10;99.90;;;;;;5018868;28;20029;-75
2024/01/25 09:10:38;;;;;;;83.15;23.48;;;8.00;99.90;;;;;;5026476;28;20025;-76
2024/01/25 09:13:04;;;;;;;71.32;21.80;;;8.00;99.90;;;;;;5022791;28;20040;-77
2024/01/25 09:15:30;;;;;;;64.18;22.55;;;8.00;99.90;;;;;;5017773;28;20101;-76
2024/01/25 09:17:59;;;;;;;58.28;17.27;;;8.10;99.90;;;;;;5014741;28;20036;-77
2024/01/25 09:20:27;;;;;;;87.57;26.30;;;8.20;99.90;;;;;;5021559;28;20084;-80
2024/01/25 09:22:56;;;;;;;91.93;26.92;;;8.30;99.90;;;;;;5022435;28;20501;-78
2024/01/25 09:25:22;;;;;;;104.30;27.90;;;8.20;99.90;;;;;;5022919;28;20033;-76
2024/01/25 09:27:47;;;;;;;70.13;24.77;;;8.20;99.90;;;;;;5030761;28;20018;-76
2024/01/25 09:30:14;;;;;;;78.13;25.05;;;8.30;99.90;;;;;;5031446;28;20030;-75
2024/01/25 09:32:39;;;;;;;83.25;27.27;;;8.30;99.90;;;;;;5032090;28;20482;-77
2024/01/25 09:35:06;;;;;;;88.68;25.52;;;8.40;99.90;;;;;;5031052;28;20033;-76
2024/01/25 09:37:31;;;;;;;74.68;24.58;;;8.50;99.90;;;;;;5030565;28;20021;-77
2024/01/25 09:39:58;;;;;;;77.07;24.23;;;8.60;99.90;;;;;;5024704;28;20585;-76
2024/01/25 09:42:24;;;;;;;89.20;26.88;;;8.60;99.90;;;;;;5027615;28;20108;-76
2024/01/25 09:44:52;;;;;;;76.35;22.05;;;8.60;99.90;;;;;;5011727;28;20135;-76
2024/01/25 09:47:20;;;;;;;77.65;23.75;;;8.70;99.90;;;;;;5020318;28;20149;-77
2024/01/25 09:49:46;;;;;;;82.00;22.55;;;8.70;99.90;;;;;;5029883;28;20028;-77
2024/01/25 09:52:13;;;;;;;77.88;22.05;;;8.70;99.90;;;;;;5011861;28;20034;-77
2024/01/25 09:54:39;;;;;;;78.50;22.92;;;8.70;99.90;;;;;;5010363;28;20026;-78
2024/01/25 09:57:17;;;;;;;69.53;22.13;;;8.70;99.90;;;;;;5029134;28;20025;-76
2024/01/25 09:59:43;;;;;;;88.55;25.25;;;8.70;99.90;;;;;;5016421;28;20036;-78
2024/01/25 10:02:10;;;;;;;81.85;25.30;;;8.70;99.90;;;;;;5028136;28;20433;-76
2024/01/25 10:04:36;;;;;;;80.72;22.92;;;8.70;99.90;;;;;;5011265;28;20022;-76
2024/01/25 10:07:02;;;;;;;81.68;22.75;;;8.70;99.90;;;;;;5011023;28;20040;-78
2024/01/25 10:09:27;;;;;;;76.53;22.33;;;8.70;99.90;;;;;;5012099;28;20861;-78
2024/01/25 10:11:53;;;;;;;71.05;23.58;;;8.70;99.90;;;;;;5010819;28;20022;-78
2024/01/25 10:14:19;;;;;;;73.45;24.17;;;8.80;99.90;;;;;;5018043;28;20038;-77
2024/01/25 10:16:48;;;;;;;75.07;25.23;;;8.80;99.90;;;;;;5017848;28;20022;-77
2024/01/25 10:19:14;;;;;;;71.80;24.38;;;8.80;99.90;;;;;;5018287;28;20037;-79
2024/01/25 10:21:42;;;;;;;64.55;22.13;;;8.80;99.90;;;;;;5014963;28;20025;-79
2024/01/25 10:24:09;;;;;;;62.75;22.23;;;8.80;99.90;;;;;;5015287;28;20129;-77
2024/01/25 10:26:34;;;;;;;63.63;20.67;;;8.80;99.90;;;;;;5014692;28;20084;-78
2024/01/25 10:29:01;;;;;;;58.72;20.60;;;8.80;99.90;;;;;;5015126;28;20049;-77
2024/01/25 10:31:28;;;;;;;67.15;21.65;;;8.70;99.90;;;;;;5014127;28;20053;-77
2024/01/25 10:33:55;;;;;;;50.17;19.23;;;8.70;99.90;;;;;;5033268;28;20482;-81
2024/01/25 10:36:22;;;;;;;70.18;18.63;;;8.80;99.90;;;;;;5031078;28;20061;-78
2024/01/25 10:38:53;;;;;;;68.63;20.73;;;8.90;99.90;;;;;;5014375;28;20030;-78
2024/01/25 10:41:20;;;;;;;61.93;19.77;;;9.00;99.90;;;;;;5035526;28;20033;-79
2024/01/25 10:43:46;;;;;;;68.18;21.02;;;9.00;99.90;;;;;;5027263;28;20474;-80
2024/01/25 10:46:11;;;;;;;57.47;19.60;;;9.00;99.90;;;;;;5020924;28;20153;-79
2024/01/25 10:48:38;;;;;;;62.00;19.42;;;9.00;99.90;;;;;;5033334;28;20475;-79
2024/01/25 10:51:05;;;;;;;63.17;22.70;;;9.00;99.90;;;;;;5031475;28;20856;-78
2024/01/25 10:53:35;;;;;;;59.50;22.17;;;9.00;99.90;;;;;;5033204;28;20089;-78
2024/01/25 10:56:02;;;;;;;74.30;22.75;;;9.00;99.90;;;;;;5033393;28;20497;-79
2024/01/25 10:58:35;;;;;;;78.30;23.63;;;9.00;99.90;;;;;;5031733;28;20045;-79
2024/01/25 11:01:03;;;;;;;86.75;24.65;;;9.10;99.90;;;;;;5032430;28;20406;-77
2024/01/25 11:03:30;;;;;;;80.85;25.77;;;9.10;99.90;;;;;;5033819;28;20104;-76
2024/01/25 11:06:08;;;;;;;87.07;25.30;;;9.10;99.90;;;;;;5027481;28;20025;-79
2024/01/25 11:08:34;;;;;;;82.45;25.08;;;9.10;99.90;;;;;;5018237;28;20100;-81
2024/01/25 11:10:59;;;;;;;86.53;22.90;;;9.20;99.90;;;;;;5013942;28;20022;-77
2024/01/25 11:13:29;;;;;;;85.15;23.80;;;9.20;99.90;;;;;;5024397;28;20032;-76
2024/01/25 11:15:55;;;;;;;71.68;21.05;;;9.20;99.90;;;;;;5017981;28;20018;-74
2024/01/25 11:18:25;;;;;;;80.68;21.92;;;9.20;99.90;;;;;;5000085;28;20433;-75
2024/01/25 11:20:51;;;;;;;78.68;23.38;;;9.20;99.90;;;;;;5030054;28;20029;-75
2024/01/25 11:23:17;;;;;;;74.85;21.35;;;9.30;99.90;;;;;;5032245;28;20038;-77
2024/01/25 11:25:48;;;;;;;78.97;22.90;;;9.30;99.90;;;;;;5036951;28;20108;-77
2024/01/25 11:28:17;;;;;;;77.10;20.90;;;9.20;99.90;;;;;;5031676;28;20935;-77
2024/01/25 11:30:43;;;;;;;87.53;24.30;;;9.30;99.90;;;;;;5035822;28;20031;-74
2024/01/25 11:33:19;;;;;;;74.05;22.85;;;9.20;99.90;;;;;;5032526;28;20029;-74
2024/01/25 11:35:55;;;;;;;82.35;24.25;;;9.30;99.90;;;;;;5038714;28;20425;-76
2024/01/25 11:38:21;;;;;;;87.03;21.85;;;9.30;99.90;;;;;;5028489;28;20025;-74
2024/01/25 11:40:46;;;;;;;73.32;22.33;;;9.40;99.90;;;;;;5030076;28;20426;-76
2024/01/25 11:43:14;;;;;;;66.78;21.88;;;9.40;99.90;;;;;;5033815;28;20526;-81
2024/01/25 11:45:42;;;;;;;61.38;21.08;;;9.50;99.90;;;;;;5032313;28;20519;-79
2024/01/25 11:48:08;;;;;;;69.63;22.88;;;9.60;99.90;;;;;;5035141;28;20016;-77
2024/01/25 11:50:34;;;;;;;55.72;20.20;;;9.60;99.90;;;;;;5023617;28;20096;-78
2024/01/25 11:53:00;;;;;;;63.53;20.85;;;9.60;99.90;;;;;;5024552;28;20018;-76
2024/01/25 11:55:26;;;;;;;57.00;21.25;;;9.60;99.90;;;;;;5027319;28;20386;-80
2024/01/25 11:57:51;;;;;;;64.75;24.13;;;9.60;99.90;;;;;;5030145;28;20410;-80
2024/01/25 12:00:18;;;;;;;62.85;21.05;;;9.60;99.90;;;;;;5033688;28;20053;-80
2024/01/25 12:02:44;;;;;;;67.57;22.63;;;9.70;99.90;;;;;;5028632;28;20079;-78
2024/01/25 12:05:11;;;;;;;68.95;23.83;;;9.70;99.90;;;;;;5028933;28;20442;-79
2024/01/25 12:07:39;;;;;;;64.22;22.88;;;9.60;99.90;;;;;;5033411;28;20048;-77
2024/01/25 12:10:07;;;;;;;71.75;23.33;;;9.70;99.90;;;;;;5030153;28;20074;-76
2024/01/25 12:12:35;;;;;;;73.88;24.23;;;9.70;99.90;;;;;;5031411;28;20080;-82
2024/01/25 12:15:07;;;;;;;73.47;24.05;;;9.80;99.90;;;;;;5034214;28;20029;-80
2024/01/25 12:17:38;;;;;;;73.18;25.77;;;9.90;99.90;;;;;;5028553;28;20031;-79
2024/01/25 12:20:10;;;;;;;77.72;24.55;;;9.80;99.90;;;;;;5032549;28;20018;-78
2024/01/25 12:22:37;;;;;;;82.30;26.73;;;9.90;99.90;;;;;;5028565;28;20080;-75
2024/01/25 12:25:08;;;;;;;80.55;25.25;;;9.90;99.90;;;;;;5027645;28;20283;-78
2024/01/25 12:27:33;;;;;;;62.08;23.92;;;10.00;99.90;;;;;;5032559;28;20029;-78
2024/01/25 12:29:59;;;;;;;78.30;26.02;;;10.10;99.90;;;;;;5028117;28;20025;-79
2024/01/25 12:32:25;;;;;;;73.78;25.45;;;9.90;99.90;;;;;;5028275;28;20083;-78
2024/01/25 12:35:01;;;;;;;78.45;27.20;;;9.90;99.90;;;;;;5030365;28;20025;-77